Decoded Metar for LESA (SALAMANCA in SPAIN) (IATA:SLM) | Meteo·Mobile Aviation Weather
aviador You're here:

LESA Decoded Metar

SALAMANCA in SPAIN
Report Time2019-07-22 16:00:00
UTC Time2019-07-22 16:11:22
Flight Rules vfr VFR
WindVRB at 03 kt
Visibility9999 m
Phenomena:N/A
Clouds:Few 022 Hf
Scattered CB 030 Hf
Expected CloudBase > 10,000 ft AGL from Temp-Dew spread
CeilingNone
Temp32°C (ISA +22)
Dew Point07°C (21% RH)
Heat Index30.0°C
AAT30.2°C
QNH1019 hPa
Density Alt5,062 ft
Elevation2,608 ft
Report Wrong Elevation
Raw Report
METAR LESA 221600Z VRB03KT 9999 FEW022 SCT030CB 32/07 Q1019=

Extra information for LESA:More info

Metar Taf Metar & Taf Last 4 Metars F.Rules Stats Wind Profile Meteogram Temp Stats Airport Information Weather charts Add Link Nearby VenuesMetar ALERT Operation Metar Decoded Social comments